createdAt,value
2017-12-17T00:00:03.528Z,-6.36
2017-12-17T00:01:03.538Z,-6.34
2017-12-17T00:02:03.538Z,-6.26
2017-12-17T00:03:03.533Z,-6.28
2017-12-17T00:04:03.523Z,-6.32
2017-12-17T00:05:03.541Z,-6.34
2017-12-17T00:06:03.533Z,-6.31
2017-12-17T00:07:03.536Z,-6.39
2017-12-17T00:08:03.530Z,-6.44
2017-12-17T00:09:03.535Z,-6.43
2017-12-17T00:10:03.518Z,-6.44
2017-12-17T00:11:03.530Z,-6.42
2017-12-17T00:12:03.546Z,-6.36
2017-12-17T00:13:03.535Z,-6.43
2017-12-17T00:14:03.528Z,-6.52
2017-12-17T00:15:03.539Z,-6.50
2017-12-17T00:16:03.540Z,-6.47
2017-12-17T00:17:03.526Z,-6.55
2017-12-17T00:18:03.602Z,-6.50
2017-12-17T00:19:03.530Z,-6.49
2017-12-17T00:20:03.539Z,-6.49
2017-12-17T00:21:03.534Z,-6.54
2017-12-17T00:22:03.544Z,-6.55
2017-12-17T00:23:03.537Z,-6.61
2017-12-17T00:24:03.548Z,-6.66
2017-12-17T00:25:03.544Z,-6.63
2017-12-17T00:26:03.544Z,-6.68
2017-12-17T00:27:03.544Z,-6.74
2017-12-17T00:28:03.553Z,-6.86
2017-12-17T00:29:03.532Z,-6.84
2017-12-17T00:30:03.556Z,-6.91
2017-12-17T00:31:03.543Z,-6.92
2017-12-17T00:32:03.547Z,-6.84
2017-12-17T00:33:03.543Z,-6.84
2017-12-17T00:34:03.551Z,-6.91
2017-12-17T00:35:03.546Z,-6.89
2017-12-17T00:36:03.559Z,-6.82
2017-12-17T00:37:03.536Z,-6.89
2017-12-17T00:38:03.550Z,-6.94
2017-12-17T00:39:03.552Z,-6.80
2017-12-17T00:40:03.554Z,-6.76
2017-12-17T00:41:03.555Z,-6.73
2017-12-17T00:42:03.554Z,-6.77
2017-12-17T00:43:03.548Z,-6.71
2017-12-17T00:44:03.534Z,-6.66
2017-12-17T00:45:03.533Z,-6.63
2017-12-17T00:46:03.532Z,-6.63
2017-12-17T00:47:03.540Z,-6.55
2017-12-17T00:48:03.545Z,-6.49
2017-12-17T00:49:03.542Z,-6.55
2017-12-17T00:50:03.552Z,-6.46
2017-12-17T00:51:03.553Z,-6.46
2017-12-17T00:52:03.546Z,-6.50
2017-12-17T00:53:03.544Z,-6.46
2017-12-17T00:54:03.544Z,-6.47
2017-12-17T00:55:03.543Z,-6.55
2017-12-17T00:56:03.548Z,-6.58
2017-12-17T00:57:03.536Z,-6.61
2017-12-17T00:58:03.544Z,-6.69
2017-12-17T00:59:03.561Z,-6.69
2017-12-17T01:00:03.552Z,-6.69
2017-12-17T01:01:03.661Z,-6.66
2017-12-17T01:02:03.556Z,-6.66
2017-12-17T01:03:03.561Z,-6.69
2017-12-17T01:04:03.564Z,-6.74
2017-12-17T01:05:03.549Z,-6.76
2017-12-17T01:06:03.556Z,-6.77
2017-12-17T01:07:03.552Z,-6.71
2017-12-17T01:08:03.546Z,-6.71
2017-12-17T01:09:03.558Z,-6.66
2017-12-17T01:10:03.563Z,-6.65
2017-12-17T01:11:03.555Z,-6.71
2017-12-17T01:12:03.545Z,-6.68
2017-12-17T01:13:03.549Z,-6.63
2017-12-17T01:14:03.556Z,-6.62
2017-12-17T01:15:03.547Z,-6.63
2017-12-17T01:16:03.551Z,-6.66
2017-12-17T01:17:03.545Z,-6.71
2017-12-17T01:18:03.543Z,-6.63
2017-12-17T01:19:03.563Z,-6.63
2017-12-17T01:20:03.549Z,-6.65
2017-12-17T01:21:03.551Z,-6.66
2017-12-17T01:22:03.551Z,-6.86
2017-12-17T01:23:03.564Z,-6.92
2017-12-17T01:24:03.529Z,-6.82
2017-12-17T01:25:03.560Z,-6.86
2017-12-17T01:26:03.558Z,-6.89
2017-12-17T01:27:03.529Z,-6.82
2017-12-17T01:28:03.563Z,-6.89
2017-12-17T01:29:03.570Z,-6.86
2017-12-17T01:30:03.532Z,-6.87
2017-12-17T01:31:03.556Z,-6.89
2017-12-17T01:32:03.511Z,-6.94
2017-12-17T01:33:03.523Z,-7.01
2017-12-17T01:34:03.565Z,-6.95
2017-12-17T01:35:03.572Z,-7.05
2017-12-17T01:36:03.522Z,-7.13
2017-12-17T01:37:03.593Z,-7.23
2017-12-17T01:38:03.566Z,-7.23
2017-12-17T01:39:03.568Z,-7.23
2017-12-17T01:40:03.515Z,-7.19
2017-12-17T01:41:03.566Z,-7.11
2017-12-17T01:42:03.560Z,-7.19
2017-12-17T01:43:03.570Z,-7.16
2017-12-17T01:44:03.563Z,-7.13
2017-12-17T01:45:03.543Z,-7.22
2017-12-17T01:46:03.512Z,-7.25
2017-12-17T01:47:03.559Z,-7.22
2017-12-17T01:48:03.542Z,-7.13
2017-12-17T01:49:03.573Z,-7.11
2017-12-17T01:50:03.565Z,-7.12
2017-12-17T01:51:03.510Z,-7.07
2017-12-17T01:52:03.562Z,-7.04
2017-12-17T01:53:03.509Z,-7.04
2017-12-17T01:54:03.553Z,-6.95
2017-12-17T01:55:03.514Z,-7.02
2017-12-17T01:56:03.566Z,-6.98
2017-12-17T01:57:03.515Z,-6.95
2017-12-17T01:58:03.513Z,-6.89
2017-12-17T01:59:03.508Z,-6.86
2017-12-17T02:00:03.512Z,-6.89
2017-12-17T02:01:03.566Z,-6.91
2017-12-17T02:02:03.519Z,-6.77
2017-12-17T02:03:03.515Z,-6.87
2017-12-17T02:04:03.549Z,-6.84
2017-12-17T02:05:03.508Z,-6.87
2017-12-17T02:06:03.554Z,-6.82
2017-12-17T02:07:03.548Z,-6.76
2017-12-17T02:08:03.511Z,-6.82
2017-12-17T02:09:03.567Z,-6.76
2017-12-17T02:10:03.642Z,-6.79
2017-12-17T02:11:03.551Z,-6.79
2017-12-17T02:12:03.514Z,-6.79
2017-12-17T02:13:03.512Z,-6.77
2017-12-17T02:14:03.567Z,-6.83
2017-12-17T02:15:03.507Z,-6.86
2017-12-17T02:16:03.564Z,-6.86
2017-12-17T02:17:03.565Z,-6.95
2017-12-17T02:18:03.515Z,-6.98
2017-12-17T02:19:03.511Z,-6.91
2017-12-17T02:20:03.508Z,-7.02
2017-12-17T02:21:03.508Z,-6.94
2017-12-17T02:22:03.516Z,-6.97
2017-12-17T02:23:03.554Z,-6.89
2017-12-17T02:24:03.517Z,-6.95
2017-12-17T02:25:03.515Z,-6.97
2017-12-17T02:26:03.544Z,-7.01
2017-12-17T02:27:03.573Z,-7.00
2017-12-17T02:28:03.511Z,-7.04
2017-12-17T02:29:03.511Z,-7.12
2017-12-17T02:30:03.515Z,-7.05
2017-12-17T02:31:03.519Z,-7.02
2017-12-17T02:32:03.514Z,-7.08
2017-12-17T02:33:03.516Z,-7.08
2017-12-17T02:34:03.520Z,-7.07
2017-12-17T02:35:03.562Z,-7.15
2017-12-17T02:36:03.568Z,-7.00
2017-12-17T02:37:03.521Z,-7.04
2017-12-17T02:38:03.574Z,-7.05
2017-12-17T02:39:03.519Z,-7.19
2017-12-17T02:40:03.563Z,-7.22
2017-12-17T02:41:03.549Z,-7.15
2017-12-17T02:42:03.551Z,-7.18
2017-12-17T02:43:03.522Z,-7.05
2017-12-17T02:44:03.552Z,-7.02
2017-12-17T02:45:03.571Z,-7.07
2017-12-17T02:46:03.547Z,-7.11
2017-12-17T02:47:03.557Z,-7.00
2017-12-17T02:48:03.518Z,-7.02
2017-12-17T02:49:03.517Z,-6.89
2017-12-17T02:50:03.526Z,-6.94
2017-12-17T02:51:03.560Z,-6.97
2017-12-17T02:52:03.517Z,-6.87
2017-12-17T02:53:03.577Z,-6.87
2017-12-17T02:54:03.557Z,-6.84
2017-12-17T02:55:03.563Z,-6.87
2017-12-17T02:56:03.524Z,-6.84
2017-12-17T02:57:03.580Z,-6.83
2017-12-17T02:58:03.517Z,-6.80
2017-12-17T02:59:03.524Z,-6.83
2017-12-17T03:00:03.562Z,-6.83
2017-12-17T03:01:03.578Z,-6.82
2017-12-17T03:02:03.574Z,-6.87
2017-12-17T03:03:03.520Z,-6.91
2017-12-17T03:04:03.524Z,-6.92
2017-12-17T03:05:03.519Z,-6.98
2017-12-17T03:06:03.518Z,-6.87
2017-12-17T03:07:03.575Z,-6.91
2017-12-17T03:08:03.568Z,-7.00
2017-12-17T03:09:03.580Z,-7.02
2017-12-17T03:10:03.579Z,-7.05
2017-12-17T03:11:03.558Z,-7.02
2017-12-17T03:12:03.576Z,-7.07
2017-12-17T03:13:03.576Z,-7.08
2017-12-17T03:14:03.519Z,-7.07
2017-12-17T03:15:03.569Z,-7.07
2017-12-17T03:16:03.520Z,-6.97
2017-12-17T03:17:03.551Z,-7.02
2017-12-17T03:18:03.567Z,-6.89
2017-12-17T03:19:03.525Z,-7.04
2017-12-17T03:20:03.580Z,-7.05
2017-12-17T03:21:03.554Z,-7.08
2017-12-17T03:22:03.570Z,-7.02
2017-12-17T03:23:03.518Z,-7.02
2017-12-17T03:24:03.524Z,-6.95
2017-12-17T03:25:03.567Z,-7.02
2017-12-17T03:26:03.574Z,-7.07
2017-12-17T03:27:03.557Z,-6.98
2017-12-17T03:28:03.530Z,-7.04
2017-12-17T03:29:03.518Z,-7.00
2017-12-17T03:30:03.563Z,-7.00
2017-12-17T03:31:03.519Z,-7.07
2017-12-17T03:32:03.570Z,-7.01
2017-12-17T03:33:03.574Z,-7.02
2017-12-17T03:34:03.578Z,-7.11
2017-12-17T03:35:03.538Z,-7.02
2017-12-17T03:36:03.522Z,-7.02
2017-12-17T03:37:03.518Z,-7.01
2017-12-17T03:38:03.523Z,-7.04
2017-12-17T03:39:03.563Z,-7.11
2017-12-17T03:40:03.576Z,-7.11
2017-12-17T03:41:03.522Z,-7.11
2017-12-17T03:42:03.522Z,-7.15
2017-12-17T03:43:03.525Z,-7.19
2017-12-17T03:44:03.520Z,-7.21
2017-12-17T03:45:03.540Z,-7.08
2017-12-17T03:46:03.568Z,-7.15
2017-12-17T03:47:03.569Z,-7.19
2017-12-17T03:48:03.521Z,-7.19
2017-12-17T03:49:03.561Z,-7.22
2017-12-17T03:50:03.543Z,-7.22
2017-12-17T03:51:03.553Z,-7.13
2017-12-17T03:52:03.546Z,-7.33
2017-12-17T03:53:03.521Z,-7.34
2017-12-17T03:54:03.517Z,-7.36
2017-12-17T03:55:03.566Z,-7.33
2017-12-17T03:56:03.579Z,-7.30
2017-12-17T03:57:03.521Z,-7.23
2017-12-17T03:58:03.521Z,-7.29
2017-12-17T03:59:03.569Z,-7.26
2017-12-17T04:00:03.558Z,-7.22
2017-12-17T04:01:03.539Z,-7.15
2017-12-17T04:02:03.551Z,-7.16
2017-12-17T04:03:03.563Z,-7.22
2017-12-17T04:04:03.559Z,-7.23
2017-12-17T04:05:03.546Z,-7.23
2017-12-17T04:06:03.570Z,-7.23
2017-12-17T04:07:03.519Z,-7.15
2017-12-17T04:08:03.561Z,-7.19
2017-12-17T04:09:03.560Z,-7.16
2017-12-17T04:10:03.545Z,-7.25
2017-12-17T04:11:03.557Z,-7.22
2017-12-17T04:12:03.551Z,-7.25
2017-12-17T04:13:03.554Z,-7.19
2017-12-17T04:14:03.516Z,-7.22
2017-12-17T04:15:03.566Z,-7.25
2017-12-17T04:16:03.511Z,-7.12
2017-12-17T04:17:03.514Z,-7.19
2017-12-17T04:18:03.514Z,-7.21
2017-12-17T04:19:03.512Z,-7.25
2017-12-17T04:20:03.545Z,-7.15
2017-12-17T04:21:03.571Z,-7.26
2017-12-17T04:22:03.541Z,-7.23
2017-12-17T04:23:03.565Z,-7.21
2017-12-17T04:24:03.510Z,-7.19
2017-12-17T04:25:03.511Z,-7.15
2017-12-17T04:26:03.510Z,-7.33
2017-12-17T04:27:03.564Z,-7.33
2017-12-17T04:28:03.503Z,-7.36
2017-12-17T04:29:03.546Z,-7.34
2017-12-17T04:30:03.558Z,-7.33
2017-12-17T04:31:03.562Z,-7.31
2017-12-17T04:32:03.506Z,-7.29
2017-12-17T04:33:03.507Z,-7.30
2017-12-17T04:34:03.552Z,-7.26
2017-12-17T04:35:03.552Z,-7.31
2017-12-17T04:36:03.506Z,-7.29
2017-12-17T04:37:03.508Z,-7.37
2017-12-17T04:38:03.500Z,-7.41
2017-12-17T04:39:03.498Z,-7.43
2017-12-17T04:40:03.503Z,-7.41
2017-12-17T04:41:03.503Z,-7.46
2017-12-17T04:42:03.559Z,-7.37
2017-12-17T04:43:03.521Z,-7.39
2017-12-17T04:44:03.540Z,-7.41
2017-12-17T04:45:03.548Z,-7.41
2017-12-17T04:46:03.541Z,-7.48
2017-12-17T04:47:03.498Z,-7.46
2017-12-17T04:48:03.498Z,-7.43
2017-12-17T04:49:03.547Z,-7.44
2017-12-17T04:50:03.538Z,-7.37
2017-12-17T04:51:03.491Z,-7.46
2017-12-17T04:52:03.494Z,-7.48
2017-12-17T04:53:03.536Z,-7.48
2017-12-17T04:54:03.488Z,-7.43
2017-12-17T04:55:03.534Z,-7.41
2017-12-17T04:56:03.540Z,-7.46
2017-12-17T04:57:03.491Z,-7.41
2017-12-17T04:58:03.528Z,-7.43
2017-12-17T04:59:03.549Z,-7.44
2017-12-17T05:00:03.546Z,-7.41
2017-12-17T05:01:03.531Z,-7.39
2017-12-17T05:02:03.490Z,-7.39
2017-12-17T05:03:03.484Z,-7.30
2017-12-17T05:04:03.483Z,-7.29
2017-12-17T05:05:03.489Z,-7.25
2017-12-17T05:06:03.516Z,-7.31
2017-12-17T05:07:03.482Z,-7.26
2017-12-17T05:08:03.479Z,-7.33
2017-12-17T05:09:03.479Z,-7.31
2017-12-17T05:10:03.534Z,-7.31
2017-12-17T05:11:03.533Z,-7.33
2017-12-17T05:12:03.511Z,-7.37
2017-12-17T05:13:03.484Z,-7.36
2017-12-17T05:14:03.521Z,-7.31
2017-12-17T05:15:03.483Z,-7.39
2017-12-17T05:16:03.513Z,-7.50
2017-12-17T05:17:03.476Z,-7.46
2017-12-17T05:18:03.535Z,-7.44
2017-12-17T05:19:03.482Z,-7.48
2017-12-17T05:20:03.530Z,-7.50
2017-12-17T05:21:03.509Z,-7.46
2017-12-17T05:22:03.487Z,-7.44
2017-12-17T05:23:03.474Z,-7.43
2017-12-17T05:24:03.502Z,-7.50
2017-12-17T05:25:03.514Z,-7.40
2017-12-17T05:26:03.522Z,-7.43
2017-12-17T05:27:03.475Z,-7.40
2017-12-17T05:28:03.474Z,-7.46
2017-12-17T05:29:03.470Z,-7.41
2017-12-17T05:30:03.528Z,-7.48
2017-12-17T05:31:03.525Z,-7.43
2017-12-17T05:32:03.527Z,-7.48
2017-12-17T05:33:03.518Z,-7.48
2017-12-17T05:34:03.496Z,-7.44
2017-12-17T05:35:03.470Z,-7.43
2017-12-17T05:36:03.527Z,-7.39
2017-12-17T05:37:03.470Z,-7.39
2017-12-17T05:38:03.521Z,-7.44
2017-12-17T05:39:03.468Z,-7.44
2017-12-17T05:40:03.518Z,-7.39
2017-12-17T05:41:03.463Z,-7.43
2017-12-17T05:42:03.471Z,-7.34
2017-12-17T05:43:03.468Z,-7.31
2017-12-17T05:44:03.516Z,-7.30
2017-12-17T05:45:03.504Z,-7.30
2017-12-17T05:46:03.485Z,-7.36
2017-12-17T05:47:03.502Z,-7.33
2017-12-17T05:48:03.462Z,-7.36
2017-12-17T05:49:03.521Z,-7.29
2017-12-17T05:50:03.493Z,-7.26
2017-12-17T05:51:03.519Z,-7.26
2017-12-17T05:52:03.510Z,-7.34
2017-12-17T05:53:03.517Z,-7.26
2017-12-17T05:54:03.460Z,-7.26
2017-12-17T05:55:03.458Z,-7.33
2017-12-17T05:56:03.509Z,-7.34
2017-12-17T05:57:03.462Z,-7.41
2017-12-17T05:58:03.461Z,-7.37
2017-12-17T05:59:03.460Z,-7.40
2017-12-17T06:00:03.516Z,-7.44
2017-12-17T06:01:03.514Z,-7.43
2017-12-17T06:02:03.456Z,-7.44
2017-12-17T06:03:03.460Z,-7.50
2017-12-17T06:04:03.515Z,-7.46
2017-12-17T06:05:03.509Z,-7.51
2017-12-17T06:06:03.518Z,-7.48
2017-12-17T06:07:03.453Z,-7.50
2017-12-17T06:08:03.453Z,-7.46
2017-12-17T06:09:03.492Z,-7.48
2017-12-17T06:10:03.501Z,-7.48
2017-12-17T06:11:03.457Z,-7.51
2017-12-17T06:12:03.459Z,-7.51
2017-12-17T06:13:03.500Z,-7.55
2017-12-17T06:14:03.514Z,-7.50
2017-12-17T06:15:03.477Z,-7.61
2017-12-17T06:16:03.448Z,-7.54
2017-12-17T06:17:03.454Z,-7.60
2017-12-17T06:18:03.453Z,-7.57
2017-12-17T06:19:03.448Z,-7.54
2017-12-17T06:20:03.450Z,-7.52
2017-12-17T06:21:03.449Z,-7.60
2017-12-17T06:22:03.451Z,-7.58
2017-12-17T06:23:03.446Z,-7.66
2017-12-17T06:24:03.446Z,-7.71
2017-12-17T06:25:03.444Z,-7.71
2017-12-17T06:26:03.444Z,-7.62
2017-12-17T06:27:03.445Z,-7.68
2017-12-17T06:28:03.443Z,-7.64
2017-12-17T06:29:03.443Z,-7.58
2017-12-17T06:30:03.448Z,-7.66
2017-12-17T06:31:03.449Z,-7.64
2017-12-17T06:32:03.448Z,-7.55
2017-12-17T06:33:03.441Z,-7.62
2017-12-17T06:34:03.440Z,-7.58
2017-12-17T06:35:03.445Z,-7.66
2017-12-17T06:36:03.441Z,-7.66
2017-12-17T06:37:03.438Z,-7.64
2017-12-17T06:38:03.445Z,-7.58
2017-12-17T06:39:03.447Z,-7.66
2017-12-17T06:40:03.441Z,-7.80
2017-12-17T06:41:03.436Z,-7.86
2017-12-17T06:42:03.436Z,-7.79
2017-12-17T06:43:03.441Z,-7.76
2017-12-17T06:44:03.437Z,-7.72
2017-12-17T06:45:03.442Z,-7.76
2017-12-17T06:46:03.440Z,-7.75
2017-12-17T06:47:03.440Z,-7.75
2017-12-17T06:48:03.433Z,-7.78
2017-12-17T06:49:03.432Z,-7.80
2017-12-17T06:50:03.431Z,-7.82
2017-12-17T06:51:03.438Z,-7.79
2017-12-17T06:52:03.431Z,-7.78
2017-12-17T06:53:03.430Z,-7.78
2017-12-17T06:54:03.433Z,-7.87
2017-12-17T06:55:03.428Z,-7.80
2017-12-17T06:56:03.427Z,-7.79
2017-12-17T06:57:03.433Z,-7.79
2017-12-17T06:58:03.427Z,-7.80
2017-12-17T06:59:03.432Z,-7.83
2017-12-17T07:00:03.424Z,-7.78
2017-12-17T07:01:03.430Z,-7.76
2017-12-17T07:02:03.426Z,-7.71
2017-12-17T07:03:03.431Z,-7.73
2017-12-17T07:04:03.428Z,-7.89
2017-12-17T07:05:03.433Z,-7.86
2017-12-17T07:06:03.430Z,-7.93
2017-12-17T07:07:03.429Z,-7.96
2017-12-17T07:08:03.423Z,-8.01
2017-12-17T07:09:03.427Z,-8.02
2017-12-17T07:10:03.421Z,-7.99
2017-12-17T07:11:03.424Z,-7.99
2017-12-17T07:12:03.424Z,-8.05
2017-12-17T07:13:03.424Z,-7.97
2017-12-17T07:14:03.428Z,-7.96
2017-12-17T07:15:03.442Z,-7.91
2017-12-17T07:16:03.420Z,-7.93
2017-12-17T07:17:03.422Z,-7.96
2017-12-17T07:18:03.424Z,-7.91
2017-12-17T07:19:03.423Z,-7.94
2017-12-17T07:20:03.416Z,-7.94
2017-12-17T07:21:03.414Z,-7.89
2017-12-17T07:22:03.416Z,-7.91
2017-12-17T07:23:03.412Z,-7.91
2017-12-17T07:24:03.418Z,-7.94
2017-12-17T07:25:03.410Z,-7.91
2017-12-17T07:26:03.413Z,-7.91
2017-12-17T07:27:03.420Z,-7.94
2017-12-17T07:28:03.414Z,-8.06
2017-12-17T07:29:03.415Z,-8.01
2017-12-17T07:30:03.415Z,-8.06
2017-12-17T07:31:03.415Z,-8.06
2017-12-17T07:32:03.413Z,-8.11
2017-12-17T07:33:03.408Z,-8.12
2017-12-17T07:34:03.406Z,-8.15
2017-12-17T07:35:03.406Z,-8.15
2017-12-17T07:36:03.407Z,-8.13
2017-12-17T07:37:03.405Z,-8.12
2017-12-17T07:38:03.422Z,-8.06
2017-12-17T07:39:03.402Z,-8.06
2017-12-17T07:40:03.406Z,-8.06
2017-12-17T07:41:03.406Z,-8.08
2017-12-17T07:42:03.402Z,-8.02
2017-12-17T07:43:03.405Z,-7.97
2017-12-17T07:44:03.399Z,-7.99
2017-12-17T07:45:03.405Z,-7.94
2017-12-17T07:46:03.401Z,-7.99
2017-12-17T07:47:03.402Z,-7.99
2017-12-17T07:48:03.402Z,-8.05
2017-12-17T07:49:03.397Z,-8.06
2017-12-17T07:50:03.401Z,-8.01
2017-12-17T07:51:03.403Z,-7.99
2017-12-17T07:52:03.393Z,-7.96
2017-12-17T07:53:03.392Z,-7.99
2017-12-17T07:54:03.395Z,-8.11
2017-12-17T07:55:03.393Z,-8.12
2017-12-17T07:56:03.390Z,-8.24
2017-12-17T07:57:03.395Z,-8.27
2017-12-17T07:58:03.395Z,-8.21
2017-12-17T07:59:03.394Z,-8.36
2017-12-17T08:00:03.386Z,-8.37
2017-12-17T08:01:03.393Z,-8.40
2017-12-17T08:02:03.396Z,-8.27
2017-12-17T08:03:03.393Z,-8.40
2017-12-17T08:04:03.387Z,-8.39
2017-12-17T08:05:03.382Z,-8.37
2017-12-17T08:06:03.412Z,-8.48
2017-12-17T08:07:03.382Z,-8.42
2017-12-17T08:08:03.385Z,-8.48
2017-12-17T08:09:03.382Z,-8.50
2017-12-17T08:10:03.380Z,-8.51
2017-12-17T08:11:03.386Z,-8.48
2017-12-17T08:12:03.382Z,-8.51
2017-12-17T08:13:03.382Z,-8.51
2017-12-17T08:14:03.376Z,-8.48
2017-12-17T08:15:03.381Z,-8.66
2017-12-17T08:16:03.377Z,-8.58
2017-12-17T08:17:03.373Z,-8.62
2017-12-17T08:18:03.379Z,-8.62
2017-12-17T08:19:03.376Z,-8.62
2017-12-17T08:20:03.371Z,-8.62
2017-12-17T08:21:03.374Z,-8.58
2017-12-17T08:22:03.368Z,-8.51
2017-12-17T08:23:03.371Z,-8.44
2017-12-17T08:24:03.363Z,-8.47
2017-12-17T08:25:03.368Z,-8.45
2017-12-17T08:26:03.362Z,-8.40
2017-12-17T08:27:03.366Z,-8.42
2017-12-17T08:28:03.363Z,-8.31
2017-12-17T08:29:03.357Z,-8.45
2017-12-17T08:30:03.356Z,-8.54
2017-12-17T08:31:03.356Z,-8.44
2017-12-17T08:32:03.355Z,-8.58
2017-12-17T08:33:03.360Z,-8.51
2017-12-17T08:34:03.354Z,-8.58
2017-12-17T08:35:03.352Z,-8.44
2017-12-17T08:36:03.358Z,-8.40
2017-12-17T08:37:03.354Z,-8.27
2017-12-17T08:38:03.359Z,-7.99
2017-12-17T08:39:03.353Z,-7.75
2017-12-17T08:40:03.351Z,-7.41
2017-12-17T08:41:03.345Z,-6.94
2017-12-17T08:42:03.346Z,-6.61
2017-12-17T08:43:03.343Z,-6.00
2017-12-17T08:44:03.350Z,-5.32
2017-12-17T08:45:03.351Z,-4.24
2017-12-17T08:46:03.343Z,-3.03
2017-12-17T08:47:03.349Z,-1.72
2017-12-17T08:48:03.345Z,-0.33
2017-12-17T08:49:03.404Z,0.88
2017-12-17T08:50:03.349Z,1.63
2017-12-17T08:51:03.352Z,2.03
2017-12-17T08:52:03.351Z,1.87
2017-12-17T08:53:03.358Z,1.88
2017-12-17T08:54:03.355Z,1.60
2017-12-17T08:55:03.349Z,1.36
2017-12-17T08:56:03.350Z,1.27
2017-12-17T08:57:03.359Z,1.08
2017-12-17T08:58:03.361Z,0.75
2017-12-17T08:59:03.362Z,0.55
2017-12-17T09:00:03.365Z,0.50
2017-12-17T09:01:03.367Z,0.60
2017-12-17T09:02:03.360Z,1.14
2017-12-17T09:03:03.362Z,1.66
2017-12-17T09:04:03.365Z,1.60
2017-12-17T09:05:03.369Z,1.41
2017-12-17T09:06:03.373Z,0.73
2017-12-17T09:07:03.374Z,0.38
2017-12-17T09:08:03.378Z,0.78
2017-12-17T09:09:03.381Z,0.58
2017-12-17T09:10:03.383Z,0.70
2017-12-17T09:11:03.386Z,0.35
2017-12-17T09:12:03.391Z,0.38
2017-12-17T09:13:03.394Z,0.07
2017-12-17T09:14:03.394Z,-0.37
2017-12-17T09:15:03.400Z,-0.76
2017-12-17T09:16:03.393Z,-1.25
2017-12-17T09:17:03.398Z,-1.98
2017-12-17T09:18:03.405Z,-2.24
2017-12-17T09:19:03.408Z,-2.23
2017-12-17T09:20:03.405Z,-2.71
2017-12-17T09:21:03.423Z,-2.52
2017-12-17T09:22:03.414Z,-2.64
2017-12-17T09:23:03.421Z,-2.67
2017-12-17T09:24:03.423Z,-2.45
2017-12-17T09:25:03.420Z,-2.43
2017-12-17T09:26:03.422Z,-2.34
2017-12-17T09:27:03.484Z,-2.12
2017-12-17T09:28:03.426Z,-2.21
2017-12-17T09:29:03.437Z,-2.13
2017-12-17T09:30:03.438Z,-2.20
2017-12-17T09:31:03.436Z,-2.32
2017-12-17T09:32:03.443Z,-2.58
2017-12-17T09:33:03.441Z,-2.94
2017-12-17T09:34:03.444Z,-2.96
2017-12-17T09:35:03.446Z,-3.35
2017-12-17T09:36:03.450Z,-3.67
2017-12-17T09:37:03.455Z,-3.86
2017-12-17T09:38:03.463Z,-4.15
2017-12-17T09:39:03.463Z,-4.04
2017-12-17T09:40:03.460Z,-3.71
2017-12-17T09:41:03.468Z,-3.53
2017-12-17T09:42:03.472Z,-3.12
2017-12-17T09:43:03.465Z,-2.96
2017-12-17T09:44:03.473Z,-2.71
2017-12-17T09:45:03.486Z,-2.66
2017-12-17T09:46:03.478Z,-2.27
2017-12-17T09:47:03.488Z,-1.61
2017-12-17T09:48:03.485Z,-0.70
2017-12-17T09:49:03.480Z,0.55
2017-12-17T09:50:03.492Z,2.10
2017-12-17T09:51:03.487Z,3.17
2017-12-17T09:52:03.492Z,4.23
2017-12-17T09:53:03.500Z,5.24
2017-12-17T09:54:03.499Z,6.06
2017-12-17T09:55:03.508Z,6.79
2017-12-17T09:56:03.510Z,7.35
2017-12-17T09:57:03.511Z,7.55
2017-12-17T09:58:03.517Z,6.38
2017-12-17T09:59:03.545Z,7.05
2017-12-17T10:00:03.525Z,7.72
2017-12-17T10:01:03.534Z,8.18
2017-12-17T10:02:03.533Z,8.19
2017-12-17T10:03:03.538Z,8.40
2017-12-17T10:04:03.542Z,8.74
2017-12-17T10:05:03.536Z,8.80
2017-12-17T10:06:03.552Z,8.76
2017-12-17T10:07:03.574Z,8.61
2017-12-17T10:08:03.561Z,8.68
2017-12-17T10:09:03.556Z,8.28
2017-12-17T10:10:03.560Z,7.55
2017-12-17T10:11:03.565Z,8.59
2017-12-17T10:12:03.573Z,8.59
2017-12-17T10:13:03.571Z,7.32
2017-12-17T10:14:03.577Z,6.74
2017-12-17T10:15:03.590Z,5.96
2017-12-17T10:16:03.587Z,6.54
2017-12-17T10:17:03.598Z,6.25
2017-12-17T10:18:03.596Z,6.21
2017-12-17T10:19:03.625Z,7.30
2017-12-17T10:20:03.629Z,7.63
2017-12-17T10:21:03.615Z,5.83
2017-12-17T10:22:03.619Z,3.93
2017-12-17T10:23:03.630Z,4.45
2017-12-17T10:24:03.651Z,4.34
2017-12-17T10:25:03.639Z,3.60
2017-12-17T10:26:03.644Z,2.81
2017-12-17T10:27:03.644Z,1.80
2017-12-17T10:28:03.658Z,0.88
2017-12-17T10:29:03.678Z,0.49
2017-12-17T10:30:03.668Z,1.84
2017-12-17T10:31:03.703Z,3.08
2017-12-17T10:32:03.705Z,4.02
2017-12-17T10:33:03.703Z,4.63
2017-12-17T10:34:03.687Z,5.63
2017-12-17T10:35:03.688Z,5.78
2017-12-17T10:36:03.699Z,6.28
2017-12-17T10:37:03.711Z,6.99
2017-12-17T10:38:03.708Z,7.05
2017-12-17T10:39:03.713Z,6.11
2017-12-17T10:40:03.717Z,5.60
2017-12-17T10:41:03.751Z,5.85
2017-12-17T10:42:03.734Z,5.90
2017-12-17T10:43:03.742Z,4.67
2017-12-17T10:44:03.754Z,4.62
2017-12-17T10:45:03.757Z,5.04
2017-12-17T10:46:03.762Z,5.33
2017-12-17T10:47:03.770Z,5.25
2017-12-17T10:48:03.771Z,5.51
2017-12-17T10:49:03.770Z,5.71
2017-12-17T10:50:03.793Z,5.48
2017-12-17T10:51:03.788Z,4.82
2017-12-17T10:52:03.804Z,3.21
2017-12-17T10:53:03.807Z,2.85
2017-12-17T10:54:03.814Z,2.36
2017-12-17T10:55:03.821Z,1.91
2017-12-17T10:56:03.828Z,0.28
2017-12-17T10:57:04.830Z,-0.28
2017-12-17T10:58:03.834Z,-0.37
2017-12-17T10:59:03.846Z,0.55
2017-12-17T11:00:03.852Z,0.39
2017-12-17T11:01:03.867Z,0.26
2017-12-17T11:02:03.864Z,0.57
2017-12-17T11:03:03.877Z,0.53
2017-12-17T11:04:04.571Z,0.61
2017-12-17T11:05:03.890Z,0.50
2017-12-17T11:06:03.890Z,-0.05
2017-12-17T11:07:03.899Z,-0.39
2017-12-17T11:08:03.899Z,-0.89
2017-12-17T11:09:03.906Z,-0.51
2017-12-17T11:10:03.913Z,-0.57
2017-12-17T11:11:03.924Z,-0.72
2017-12-17T11:12:04.178Z,-1.19
2017-12-17T11:13:04.165Z,-1.55
2017-12-17T11:14:03.932Z,-1.98
2017-12-17T11:15:03.943Z,-2.13
2017-12-17T11:16:03.964Z,-2.23
2017-12-17T11:17:03.960Z,-2.27
2017-12-17T11:18:03.970Z,-1.90
2017-12-17T11:19:03.961Z,-1.66
2017-12-17T11:20:03.969Z,-2.13
2017-12-17T11:21:03.975Z,-2.30
2017-12-17T11:22:03.974Z,-2.06
2017-12-17T11:23:03.998Z,-1.41
2017-12-17T11:24:03.990Z,-0.54
2017-12-17T11:25:03.996Z,0.28
2017-12-17T11:26:03.997Z,0.70
2017-12-17T11:27:04.060Z,1.05
2017-12-17T11:28:04.013Z,1.45
2017-12-17T11:29:04.029Z,2.02
2017-12-17T11:30:04.020Z,1.24
2017-12-17T11:31:04.034Z,0.88
2017-12-17T11:32:04.033Z,1.40
2017-12-17T11:33:04.039Z,2.53
2017-12-17T11:34:04.054Z,3.05
2017-12-17T11:35:04.052Z,2.36
2017-12-17T11:36:04.082Z,1.63
2017-12-17T11:37:04.076Z,1.02
2017-12-17T11:38:04.097Z,0.55
2017-12-17T11:39:04.074Z,0.39
2017-12-17T11:40:04.089Z,0.55
2017-12-17T11:41:04.095Z,-0.51
2017-12-17T11:42:04.096Z,-1.70
2017-12-17T11:43:04.113Z,-1.92
2017-12-17T11:44:04.118Z,-1.22
2017-12-17T11:45:04.372Z,-1.22
2017-12-17T11:46:04.124Z,-1.28
2017-12-17T11:47:04.134Z,-1.51
2017-12-17T11:48:04.135Z,-1.40
2017-12-17T11:49:04.142Z,-1.82
2017-12-17T11:50:04.147Z,-2.18
2017-12-17T11:51:04.156Z,-1.66
2017-12-17T11:52:04.169Z,-1.82
2017-12-17T11:53:04.164Z,-1.79
2017-12-17T11:54:04.172Z,-1.52
2017-12-17T11:55:04.229Z,-1.73
2017-12-17T11:56:04.220Z,-2.40
2017-12-17T11:57:04.201Z,-2.81
2017-12-17T11:58:04.234Z,-2.53
2017-12-17T11:59:04.204Z,-2.74
2017-12-17T12:00:04.230Z,-3.10
2017-12-17T12:01:04.217Z,-3.33
2017-12-17T12:02:04.217Z,-3.30
2017-12-17T12:03:04.236Z,-3.62
2017-12-17T12:04:04.222Z,-4.22
2017-12-17T12:05:04.231Z,-4.50
2017-12-17T12:06:04.243Z,-4.39
2017-12-17T12:07:04.279Z,-4.10
2017-12-17T12:08:04.285Z,-3.96
2017-12-17T12:09:04.276Z,-3.76
2017-12-17T12:10:07.546Z,-3.75
2017-12-17T12:11:04.287Z,-3.71
2017-12-17T12:12:04.303Z,-4.29
2017-12-17T12:13:06.933Z,-4.50
2017-12-17T12:14:05.939Z,-4.51
2017-12-17T12:15:05.929Z,-4.35
2017-12-17T12:16:04.313Z,-4.22
2017-12-17T12:17:04.252Z,-4.07
2017-12-17T12:18:04.255Z,-4.22
2017-12-17T12:19:05.942Z,-4.63
2017-12-17T12:20:11.553Z,-4.60
2017-12-17T12:21:05.950Z,-4.60
2017-12-17T12:22:04.337Z,-4.60
2017-12-17T12:23:04.339Z,-4.83
2017-12-17T12:24:04.372Z,-4.65
2017-12-17T12:25:04.407Z,-5.03
2017-12-17T12:26:04.346Z,-5.25
2017-12-17T12:28:07.790Z,-5.37
2017-12-17T12:29:05.957Z,-5.19
2017-12-17T12:30:04.329Z,-5.30
2017-12-17T12:31:06.949Z,-5.22
2017-12-17T12:32:04.383Z,-5.23
2017-12-17T12:33:05.951Z,-5.30
2017-12-17T12:34:04.359Z,-5.48
2017-12-17T12:35:04.345Z,-5.44
2017-12-17T12:36:04.364Z,-5.25
2017-12-17T12:37:04.355Z,-5.08
2017-12-17T12:38:05.947Z,-5.13
2017-12-17T12:39:04.354Z,-5.22
2017-12-17T12:40:04.355Z,-5.23
2017-12-17T12:41:04.362Z,-5.14
2017-12-17T12:42:04.356Z,-5.14
2017-12-17T12:43:04.357Z,-5.13
2017-12-17T12:44:04.375Z,-5.18
2017-12-17T12:45:04.362Z,-5.27
2017-12-17T12:46:04.372Z,-5.48
2017-12-17T12:47:04.373Z,-5.55
2017-12-17T12:48:04.372Z,-5.69
2017-12-17T12:49:04.375Z,-5.66
2017-12-17T12:50:04.379Z,-5.53
2017-12-17T12:51:04.405Z,-5.46
2017-12-17T12:52:04.386Z,-5.25
2017-12-17T12:53:04.381Z,-5.10
2017-12-17T12:54:04.398Z,-5.11
2017-12-17T12:55:04.391Z,-4.97
2017-12-17T12:56:04.397Z,-4.79
2017-12-17T12:57:04.402Z,-4.68